sensor_id;sensor_type;location;lat;lon;timestamp;temperature;humidity
69932;DHT22;57243;52.064;5.116;2023-03-31T00:02:17;16.40;67.00
69932;DHT22;57243;52.064;5.116;2023-03-31T00:04:46;16.40;67.00
69932;DHT22;57243;52.064;5.116;2023-03-31T00:07:17;16.40;67.10
69932;DHT22;57243;52.064;5.116;2023-03-31T00:09:49;16.40;67.00
69932;DHT22;57243;52.064;5.116;2023-03-31T00:12:19;16.40;67.00
69932;DHT22;57243;52.064;5.116;2023-03-31T00:14:44;16.40;67.00
69932;DHT22;57243;52.064;5.116;2023-03-31T00:17:10;16.40;67.00
69932;DHT22;57243;52.064;5.116;2023-03-31T00:19:36;16.40;66.90
69932;DHT22;57243;52.064;5.116;2023-03-31T00:22:02;16.40;67.00
69932;DHT22;57243;52.064;5.116;2023-03-31T00:24:29;16.40;67.00
69932;DHT22;57243;52.064;5.116;2023-03-31T00:27:03;16.40;67.00
69932;DHT22;57243;52.064;5.116;2023-03-31T00:29:29;16.40;67.00
69932;DHT22;57243;52.064;5.116;2023-03-31T00:31:55;16.40;67.00
69932;DHT22;57243;52.064;5.116;2023-03-31T00:34:23;16.40;67.00
69932;DHT22;57243;52.064;5.116;2023-03-31T00:36:48;16.40;67.00
69932;DHT22;57243;52.064;5.116;2023-03-31T00:39:15;16.40;67.00
69932;DHT22;57243;52.064;5.116;2023-03-31T00:41:41;16.40;67.00
69932;DHT22;57243;52.064;5.116;2023-03-31T00:49:07;16.40;67.00
69932;DHT22;57243;52.064;5.116;2023-03-31T00:51:36;16.40;67.10
69932;DHT22;57243;52.064;5.116;2023-03-31T00:54:03;16.40;67.10
69932;DHT22;57243;52.064;5.116;2023-03-31T00:56:37;16.40;67.10
69932;DHT22;57243;52.064;5.116;2023-03-31T00:59:04;16.40;67.10
69932;DHT22;57243;52.064;5.116;2023-03-31T01:01:32;16.40;67.20
69932;DHT22;57243;52.064;5.116;2023-03-31T01:04:00;16.40;67.10
69932;DHT22;57243;52.064;5.116;2023-03-31T01:06:26;16.40;67.10
69932;DHT22;57243;52.064;5.116;2023-03-31T01:08:55;16.40;67.10
69932;DHT22;57243;52.064;5.116;2023-03-31T01:11:21;16.40;67.10
69932;DHT22;57243;52.064;5.116;2023-03-31T01:13:47;16.40;67.20
69932;DHT22;57243;52.064;5.116;2023-03-31T01:16:15;16.40;67.10
69932;DHT22;57243;52.064;5.116;2023-03-31T01:18:41;16.40;67.20
69932;DHT22;57243;52.064;5.116;2023-03-31T01:33:55;16.50;67.20
69932;DHT22;57243;52.064;5.116;2023-03-31T01:46:53;16.50;67.20
69932;DHT22;57243;52.064;5.116;2023-03-31T01:57:31;16.40;67.20
69932;DHT22;57243;52.064;5.116;2023-03-31T02:02:37;16.50;67.30
69932;DHT22;57243;52.064;5.116;2023-03-31T02:05:10;16.50;67.30
69932;DHT22;57243;52.064;5.116;2023-03-31T02:07:41;16.50;67.20
69932;DHT22;57243;52.064;5.116;2023-03-31T02:10:07;16.40;67.30
69932;DHT22;57243;52.064;5.116;2023-03-31T02:12:34;16.40;67.20
69932;DHT22;57243;52.064;5.116;2023-03-31T02:15:02;16.40;67.30
69932;DHT22;57243;52.064;5.116;2023-03-31T02:17:28;16.40;67.30
69932;DHT22;57243;52.064;5.116;2023-03-31T02:19:58;16.40;67.30
69932;DHT22;57243;52.064;5.116;2023-03-31T02:22:24;16.40;67.30
69932;DHT22;57243;52.064;5.116;2023-03-31T02:24:51;16.40;67.20
69932;DHT22;57243;52.064;5.116;2023-03-31T02:27:18;16.40;67.30
69932;DHT22;57243;52.064;5.116;2023-03-31T02:29:45;16.40;67.30
69932;DHT22;57243;52.064;5.116;2023-03-31T02:32:16;16.50;67.30
69932;DHT22;57243;52.064;5.116;2023-03-31T02:34:42;16.40;67.30
69932;DHT22;57243;52.064;5.116;2023-03-31T02:37:08;16.40;67.30
69932;DHT22;57243;52.064;5.116;2023-03-31T02:39:34;16.40;67.30
69932;DHT22;57243;52.064;5.116;2023-03-31T02:42:01;16.40;67.30
69932;DHT22;57243;52.064;5.116;2023-03-31T02:44:34;16.40;67.30
69932;DHT22;57243;52.064;5.116;2023-03-31T02:47:00;16.40;67.30
69932;DHT22;57243;52.064;5.116;2023-03-31T02:49:26;16.40;67.40
69932;DHT22;57243;52.064;5.116;2023-03-31T02:52:08;16.40;67.30
69932;DHT22;57243;52.064;5.116;2023-03-31T02:59:54;16.40;67.30
69932;DHT22;57243;52.064;5.116;2023-03-31T03:05:12;16.40;67.30
69932;DHT22;57243;52.064;5.116;2023-03-31T03:07:46;16.40;67.30
69932;DHT22;57243;52.064;5.116;2023-03-31T03:12:55;16.50;67.40
69932;DHT22;57243;52.064;5.116;2023-03-31T03:18:07;16.40;67.40
69932;DHT22;57243;52.064;5.116;2023-03-31T03:20:32;16.40;67.30
69932;DHT22;57243;52.064;5.116;2023-03-31T03:22:58;16.40;67.40
69932;DHT22;57243;52.064;5.116;2023-03-31T03:25:24;16.40;67.30
69932;DHT22;57243;52.064;5.116;2023-03-31T03:27:49;16.40;67.40
69932;DHT22;57243;52.064;5.116;2023-03-31T03:30:18;16.40;67.40
69932;DHT22;57243;52.064;5.116;2023-03-31T03:32:43;16.40;67.30
69932;DHT22;57243;52.064;5.116;2023-03-31T03:35:09;16.40;67.30
69932;DHT22;57243;52.064;5.116;2023-03-31T03:37:35;16.40;67.40
69932;DHT22;57243;52.064;5.116;2023-03-31T03:40:00;16.40;67.40
69932;DHT22;57243;52.064;5.116;2023-03-31T03:42:26;16.40;67.40
69932;DHT22;57243;52.064;5.116;2023-03-31T03:44:52;16.40;67.30
69932;DHT22;57243;52.064;5.116;2023-03-31T03:47:17;16.40;67.40
69932;DHT22;57243;52.064;5.116;2023-03-31T03:49:42;16.40;67.40
69932;DHT22;57243;52.064;5.116;2023-03-31T03:52:08;16.40;67.50
69932;DHT22;57243;52.064;5.116;2023-03-31T03:54:33;16.40;67.40
69932;DHT22;57243;52.064;5.116;2023-03-31T03:56:59;16.40;67.40
69932;DHT22;57243;52.064;5.116;2023-03-31T03:59:24;16.40;67.40
69932;DHT22;57243;52.064;5.116;2023-03-31T04:01:50;16.40;67.40
69932;DHT22;57243;52.064;5.116;2023-03-31T04:04:17;16.40;67.40
69932;DHT22;57243;52.064;5.116;2023-03-31T04:06:42;16.40;67.50
69932;DHT22;57243;52.064;5.116;2023-03-31T04:09:08;16.40;67.40
69932;DHT22;57243;52.064;5.116;2023-03-31T04:11:34;16.40;67.40
69932;DHT22;57243;52.064;5.116;2023-03-31T04:13:59;16.40;67.40
69932;DHT22;57243;52.064;5.116;2023-03-31T04:16:25;16.40;67.30
69932;DHT22;57243;52.064;5.116;2023-03-31T04:18:51;16.40;67.40
69932;DHT22;57243;52.064;5.116;2023-03-31T04:21:17;16.40;67.40
69932;DHT22;57243;52.064;5.116;2023-03-31T04:23:52;16.40;67.40
69932;DHT22;57243;52.064;5.116;2023-03-31T04:26:27;16.40;67.40
69932;DHT22;57243;52.064;5.116;2023-03-31T04:28:56;16.40;67.40
69932;DHT22;57243;52.064;5.116;2023-03-31T04:31:24;16.40;67.40
69932;DHT22;57243;52.064;5.116;2023-03-31T04:33:51;16.40;67.40
69932;DHT22;57243;52.064;5.116;2023-03-31T04:36:16;16.40;67.30
69932;DHT22;57243;52.064;5.116;2023-03-31T04:38:42;16.40;67.30
69932;DHT22;57243;52.064;5.116;2023-03-31T04:41:13;16.40;67.30
69932;DHT22;57243;52.064;5.116;2023-03-31T04:43:39;16.40;67.40
69932;DHT22;57243;52.064;5.116;2023-03-31T04:46:05;16.40;67.30
69932;DHT22;57243;52.064;5.116;2023-03-31T04:48:30;16.40;67.30
69932;DHT22;57243;52.064;5.116;2023-03-31T04:50:56;16.40;67.40
69932;DHT22;57243;52.064;5.116;2023-03-31T04:53:21;16.40;67.40
69932;DHT22;57243;52.064;5.116;2023-03-31T04:55:50;16.40;67.40
69932;DHT22;57243;52.064;5.116;2023-03-31T04:58:15;16.40;67.30
69932;DHT22;57243;52.064;5.116;2023-03-31T05:00:41;16.40;67.40
69932;DHT22;57243;52.064;5.116;2023-03-31T05:03:07;16.40;67.40
69932;DHT22;57243;52.064;5.116;2023-03-31T05:05:33;16.40;67.40
69932;DHT22;57243;52.064;5.116;2023-03-31T05:07:59;16.40;67.50
69932;DHT22;57243;52.064;5.116;2023-03-31T05:10:24;16.50;69.20
69932;DHT22;57243;52.064;5.116;2023-03-31T05:12:50;16.70;69.70
69932;DHT22;57243;52.064;5.116;2023-03-31T05:15:15;16.90;69.90
69932;DHT22;57243;52.064;5.116;2023-03-31T05:17:41;17.00;70.00
69932;DHT22;57243;52.064;5.116;2023-03-31T05:20:07;17.10;70.20
69932;DHT22;57243;52.064;5.116;2023-03-31T05:22:34;17.10;70.10
69932;DHT22;57243;52.064;5.116;2023-03-31T05:25:00;17.10;69.80
69932;DHT22;57243;52.064;5.116;2023-03-31T05:27:26;17.00;69.60
69932;DHT22;57243;52.064;5.116;2023-03-31T05:29:51;17.00;69.70
69932;DHT22;57243;52.064;5.116;2023-03-31T05:32:17;16.90;69.90
69932;DHT22;57243;52.064;5.116;2023-03-31T05:34:42;16.90;70.00
69932;DHT22;57243;52.064;5.116;2023-03-31T05:37:08;16.80;69.40
69932;DHT22;57243;52.064;5.116;2023-03-31T05:39:34;16.80;69.80
69932;DHT22;57243;52.064;5.116;2023-03-31T05:41:59;16.70;71.70
69932;DHT22;57243;52.064;5.116;2023-03-31T05:44:28;16.70;72.80
69932;DHT22;57243;52.064;5.116;2023-03-31T05:46:54;16.60;73.20
69932;DHT22;57243;52.064;5.116;2023-03-31T05:49:19;16.60;73.50
69932;DHT22;57243;52.064;5.116;2023-03-31T05:51:45;16.70;73.70
69932;DHT22;57243;52.064;5.116;2023-03-31T05:54:11;16.60;72.20
69932;DHT22;57243;52.064;5.116;2023-03-31T05:56:36;16.50;72.80
69932;DHT22;57243;52.064;5.116;2023-03-31T05:59:02;16.50;72.40
69932;DHT22;57243;52.064;5.116;2023-03-31T06:01:28;16.40;72.00
69932;DHT22;57243;52.064;5.116;2023-03-31T06:03:54;16.40;71.70
69932;DHT22;57243;52.064;5.116;2023-03-31T06:06:20;16.40;71.30
69932;DHT22;57243;52.064;5.116;2023-03-31T06:08:46;16.30;71.00
69932;DHT22;57243;52.064;5.116;2023-03-31T06:11:13;16.30;71.30
69932;DHT22;57243;52.064;5.116;2023-03-31T06:13:39;16.30;71.80
69932;DHT22;57243;52.064;5.116;2023-03-31T06:16:05;16.30;72.00
69932;DHT22;57243;52.064;5.116;2023-03-31T06:18:31;16.30;71.80
69932;DHT22;57243;52.064;5.116;2023-03-31T06:20:57;16.30;71.80
69932;DHT22;57243;52.064;5.116;2023-03-31T06:23:23;16.30;71.70
69932;DHT22;57243;52.064;5.116;2023-03-31T06:25:49;16.30;71.60
69932;DHT22;57243;52.064;5.116;2023-03-31T06:28:14;16.30;72.10
69932;DHT22;57243;52.064;5.116;2023-03-31T06:30:40;16.40;72.40
69932;DHT22;57243;52.064;5.116;2023-03-31T06:33:06;16.40;72.40
69932;DHT22;57243;52.064;5.116;2023-03-31T06:35:31;16.40;72.40
69932;DHT22;57243;52.064;5.116;2023-03-31T06:37:57;16.40;72.40
69932;DHT22;57243;52.064;5.116;2023-03-31T06:40:22;16.40;72.50
69932;DHT22;57243;52.064;5.116;2023-03-31T06:42:48;16.40;73.00
69932;DHT22;57243;52.064;5.116;2023-03-31T06:45:14;16.40;72.70
69932;DHT22;57243;52.064;5.116;2023-03-31T06:47:39;16.40;72.50
69932;DHT22;57243;52.064;5.116;2023-03-31T06:50:06;16.40;72.40
69932;DHT22;57243;52.064;5.116;2023-03-31T06:52:32;16.40;72.10
69932;DHT22;57243;52.064;5.116;2023-03-31T06:54:58;16.40;72.30
69932;DHT22;57243;52.064;5.116;2023-03-31T06:57:25;16.40;72.20
69932;DHT22;57243;52.064;5.116;2023-03-31T06:59:51;16.40;72.30
69932;DHT22;57243;52.064;5.116;2023-03-31T07:02:16;16.40;72.40
69932;DHT22;57243;52.064;5.116;2023-03-31T07:04:42;16.40;72.10
69932;DHT22;57243;52.064;5.116;2023-03-31T07:07:07;16.40;72.30
69932;DHT22;57243;52.064;5.116;2023-03-31T07:09:33;16.40;72.10
69932;DHT22;57243;52.064;5.116;2023-03-31T07:11:58;16.40;72.00
69932;DHT22;57243;52.064;5.116;2023-03-31T07:14:24;16.40;71.80
69932;DHT22;57243;52.064;5.116;2023-03-31T07:16:49;16.40;72.00
69932;DHT22;57243;52.064;5.116;2023-03-31T07:19:15;16.40;71.70
69932;DHT22;57243;52.064;5.116;2023-03-31T07:21:40;16.40;71.70
69932;DHT22;57243;52.064;5.116;2023-03-31T07:24:06;16.40;71.80
69932;DHT22;57243;52.064;5.116;2023-03-31T07:26:32;16.40;71.70
69932;DHT22;57243;52.064;5.116;2023-03-31T07:28:57;16.40;71.70
69932;DHT22;57243;52.064;5.116;2023-03-31T07:31:23;16.40;71.60
69932;DHT22;57243;52.064;5.116;2023-03-31T07:33:49;16.40;71.50
69932;DHT22;57243;52.064;5.116;2023-03-31T07:36:14;16.40;71.60
69932;DHT22;57243;52.064;5.116;2023-03-31T07:38:41;16.40;71.50
69932;DHT22;57243;52.064;5.116;2023-03-31T07:41:11;16.40;71.70
69932;DHT22;57243;52.064;5.116;2023-03-31T07:43:37;16.40;71.40
69932;DHT22;57243;52.064;5.116;2023-03-31T07:46:02;16.40;71.30
69932;DHT22;57243;52.064;5.116;2023-03-31T07:48:29;16.40;71.30
69932;DHT22;57243;52.064;5.116;2023-03-31T07:50:55;16.40;71.10
69932;DHT22;57243;52.064;5.116;2023-03-31T07:53:20;16.40;71.40
69932;DHT22;57243;52.064;5.116;2023-03-31T07:55:46;16.40;71.20
69932;DHT22;57243;52.064;5.116;2023-03-31T07:58:12;16.40;71.20
69932;DHT22;57243;52.064;5.116;2023-03-31T08:00:37;16.50;71.00
69932;DHT22;57243;52.064;5.116;2023-03-31T08:03:03;16.40;71.20
69932;DHT22;57243;52.064;5.116;2023-03-31T08:05:28;16.50;71.30
69932;DHT22;57243;52.064;5.116;2023-03-31T08:07:54;16.50;71.00
69932;DHT22;57243;52.064;5.116;2023-03-31T08:10:24;16.50;71.00
69932;DHT22;57243;52.064;5.116;2023-03-31T08:12:50;16.50;70.80
69932;DHT22;57243;52.064;5.116;2023-03-31T08:15:15;16.50;70.70
69932;DHT22;57243;52.064;5.116;2023-03-31T08:17:41;16.50;70.70
69932;DHT22;57243;52.064;5.116;2023-03-31T08:20:07;16.50;70.70
69932;DHT22;57243;52.064;5.116;2023-03-31T08:22:39;16.50;70.80
69932;DHT22;57243;52.064;5.116;2023-03-31T08:25:05;16.50;70.70
69932;DHT22;57243;52.064;5.116;2023-03-31T08:27:33;16.50;70.50
69932;DHT22;57243;52.064;5.116;2023-03-31T08:29:58;16.50;70.30
69932;DHT22;57243;52.064;5.116;2023-03-31T08:32:27;16.50;70.30
69932;DHT22;57243;52.064;5.116;2023-03-31T08:34:52;16.50;70.50
69932;DHT22;57243;52.064;5.116;2023-03-31T08:37:18;16.50;70.60
69932;DHT22;57243;52.064;5.116;2023-03-31T08:39:43;16.50;70.90
69932;DHT22;57243;52.064;5.116;2023-03-31T08:42:13;16.50;71.20
69932;DHT22;57243;52.064;5.116;2023-03-31T08:44:44;16.50;71.30
69932;DHT22;57243;52.064;5.116;2023-03-31T08:47:13;16.60;71.20
69932;DHT22;57243;52.064;5.116;2023-03-31T08:49:41;16.60;71.60
69932;DHT22;57243;52.064;5.116;2023-03-31T08:52:10;16.60;71.40
69932;DHT22;57243;52.064;5.116;2023-03-31T08:54:40;16.60;71.30
69932;DHT22;57243;52.064;5.116;2023-03-31T08:57:31;16.60;71.20
69932;DHT22;57243;52.064;5.116;2023-03-31T08:59:53;16.60;71.20
69932;DHT22;57243;52.064;5.116;2023-03-31T09:13:01;16.70;71.50
69932;DHT22;57243;52.064;5.116;2023-03-31T09:20:45;16.80;71.20
69932;DHT22;57243;52.064;5.116;2023-03-31T09:25:47;16.90;70.90
69932;DHT22;57243;52.064;5.116;2023-03-31T09:28:17;16.90;71.00
69932;DHT22;57243;52.064;5.116;2023-03-31T09:30:44;16.90;70.50
69932;DHT22;57243;52.064;5.116;2023-03-31T09:33:18;16.90;70.80
69932;DHT22;57243;52.064;5.116;2023-03-31T09:35:46;16.90;70.80
69932;DHT22;57243;52.064;5.116;2023-03-31T09:38:13;17.00;70.80
69932;DHT22;57243;52.064;5.116;2023-03-31T09:40:39;16.90;70.80
69932;DHT22;57243;52.064;5.116;2023-03-31T09:43:05;16.90;70.70
69932;DHT22;57243;52.064;5.116;2023-03-31T09:45:31;17.00;70.70
69932;DHT22;57243;52.064;5.116;2023-03-31T09:48:00;17.00;70.90
69932;DHT22;57243;52.064;5.116;2023-03-31T09:50:26;17.00;71.00
69932;DHT22;57243;52.064;5.116;2023-03-31T09:52:56;17.00;70.90
69932;DHT22;57243;52.064;5.116;2023-03-31T09:55:24;17.00;70.90
69932;DHT22;57243;52.064;5.116;2023-03-31T09:57:51;17.00;71.10
69932;DHT22;57243;52.064;5.116;2023-03-31T10:00:18;17.00;71.10
69932;DHT22;57243;52.064;5.116;2023-03-31T10:02:48;17.00;71.10
69932;DHT22;57243;52.064;5.116;2023-03-31T10:05:21;17.00;71.00
69932;DHT22;57243;52.064;5.116;2023-03-31T10:07:49;17.00;70.90
69932;DHT22;57243;52.064;5.116;2023-03-31T10:10:25;17.00;71.00
69932;DHT22;57243;52.064;5.116;2023-03-31T10:12:51;17.00;71.00
69932;DHT22;57243;52.064;5.116;2023-03-31T10:15:21;17.00;71.10
69932;DHT22;57243;52.064;5.116;2023-03-31T10:17:48;17.00;71.00
69932;DHT22;57243;52.064;5.116;2023-03-31T10:20:29;17.10;71.10
69932;DHT22;57243;52.064;5.116;2023-03-31T10:22:55;17.10;71.00
69932;DHT22;57243;52.064;5.116;2023-03-31T10:25:22;17.10;70.80
69932;DHT22;57243;52.064;5.116;2023-03-31T10:27:51;17.10;70.70
69932;DHT22;57243;52.064;5.116;2023-03-31T10:30:20;17.10;71.10
69932;DHT22;57243;52.064;5.116;2023-03-31T10:32:46;17.10;70.80
69932;DHT22;57243;52.064;5.116;2023-03-31T10:35:22;17.10;70.90
69932;DHT22;57243;52.064;5.116;2023-03-31T10:37:49;17.10;70.70
69932;DHT22;57243;52.064;5.116;2023-03-31T10:40:19;17.10;70.40
69932;DHT22;57243;52.064;5.116;2023-03-31T10:42:45;17.10;70.60
69932;DHT22;57243;52.064;5.116;2023-03-31T10:45:24;17.10;70.60
69932;DHT22;57243;52.064;5.116;2023-03-31T10:47:54;17.10;70.70
69932;DHT22;57243;52.064;5.116;2023-03-31T10:50:25;17.20;70.70
69932;DHT22;57243;52.064;5.116;2023-03-31T10:52:54;17.20;70.50
69932;DHT22;57243;52.064;5.116;2023-03-31T10:55:27;17.20;70.40
69932;DHT22;57243;52.064;5.116;2023-03-31T10:57:56;17.20;70.40
69932;DHT22;57243;52.064;5.116;2023-03-31T11:00:26;17.20;70.20
69932;DHT22;57243;52.064;5.116;2023-03-31T11:08:25;17.10;70.40
69932;DHT22;57243;52.064;5.116;2023-03-31T11:10:59;17.10;70.30
69932;DHT22;57243;52.064;5.116;2023-03-31T11:16:10;17.10;69.70
69932;DHT22;57243;52.064;5.116;2023-03-31T11:18:43;17.10;69.90
69932;DHT22;57243;52.064;5.116;2023-03-31T11:21:15;17.10;70.40
69932;DHT22;57243;52.064;5.116;2023-03-31T11:29:05;17.10;70.20
69932;DHT22;57243;52.064;5.116;2023-03-31T11:31:42;17.10;70.20
69932;DHT22;57243;52.064;5.116;2023-03-31T11:41:38;17.10;69.60
69932;DHT22;57243;52.064;5.116;2023-03-31T11:44:08;17.10;69.70
69932;DHT22;57243;52.064;5.116;2023-03-31T11:49:14;17.10;70.10
69932;DHT22;57243;52.064;5.116;2023-03-31T11:54:09;17.10;69.80
69932;DHT22;57243;52.064;5.116;2023-03-31T11:56:40;17.10;69.70
69932;DHT22;57243;52.064;5.116;2023-03-31T11:59:07;17.10;69.70
69932;DHT22;57243;52.064;5.116;2023-03-31T12:04:38;17.10;69.70
69932;DHT22;57243;52.064;5.116;2023-03-31T12:09:59;17.10;69.40
69932;DHT22;57243;52.064;5.116;2023-03-31T12:12:31;17.10;69.40
69932;DHT22;57243;52.064;5.116;2023-03-31T12:17:29;17.10;69.30
69932;DHT22;57243;52.064;5.116;2023-03-31T12:19:59;17.10;69.30
69932;DHT22;57243;52.064;5.116;2023-03-31T12:22:33;17.10;69.30
69932;DHT22;57243;52.064;5.116;2023-03-31T12:25:00;17.10;69.50
69932;DHT22;57243;52.064;5.116;2023-03-31T12:27:28;17.10;69.50
69932;DHT22;57243;52.064;5.116;2023-03-31T12:29:57;17.10;69.40
69932;DHT22;57243;52.064;5.116;2023-03-31T12:32:29;17.10;69.70
69932;DHT22;57243;52.064;5.116;2023-03-31T12:34:58;17.10;69.60
69932;DHT22;57243;52.064;5.116;2023-03-31T12:37:39;17.10;69.70
69932;DHT22;57243;52.064;5.116;2023-03-31T12:47:52;17.20;69.80
69932;DHT22;57243;52.064;5.116;2023-03-31T12:50:31;17.20;69.60
69932;DHT22;57243;52.064;5.116;2023-03-31T12:55:45;17.20;69.50
69932;DHT22;57243;52.064;5.116;2023-03-31T13:01:09;17.20;69.40
69932;DHT22;57243;52.064;5.116;2023-03-31T13:06:01;17.10;69.30
69932;DHT22;57243;52.064;5.116;2023-03-31T13:11:12;17.10;69.10
69932;DHT22;57243;52.064;5.116;2023-03-31T13:13:40;17.10;69.00
69932;DHT22;57243;52.064;5.116;2023-03-31T13:16:08;17.10;69.00
69932;DHT22;57243;52.064;5.116;2023-03-31T13:18:34;17.20;69.30
69932;DHT22;57243;52.064;5.116;2023-03-31T13:21:00;17.10;69.20
69932;DHT22;57243;52.064;5.116;2023-03-31T13:23:27;17.10;69.10
69932;DHT22;57243;52.064;5.116;2023-03-31T13:25:54;17.10;68.90
69932;DHT22;57243;52.064;5.116;2023-03-31T13:30:47;17.10;69.60
69932;DHT22;57243;52.064;5.116;2023-03-31T13:35:46;17.10;69.40
69932;DHT22;57243;52.064;5.116;2023-03-31T22:06:55;16.70;70.50
69932;DHT22;57243;52.064;5.116;2023-03-31T22:09:21;16.70;70.40
69932;DHT22;57243;52.064;5.116;2023-03-31T22:11:46;16.70;70.50
69932;DHT22;57243;52.064;5.116;2023-03-31T22:14:12;16.70;70.50
69932;DHT22;57243;52.064;5.116;2023-03-31T22:16:37;16.70;70.40
69932;DHT22;57243;52.064;5.116;2023-03-31T22:19:03;16.70;70.40
69932;DHT22;57243;52.064;5.116;2023-03-31T22:21:29;16.70;70.60
69932;DHT22;57243;52.064;5.116;2023-03-31T22:23:56;16.70;70.40
69932;DHT22;57243;52.064;5.116;2023-03-31T22:26:22;16.70;70.20
69932;DHT22;57243;52.064;5.116;2023-03-31T22:28:48;16.70;70.30
69932;DHT22;57243;52.064;5.116;2023-03-31T22:31:14;16.70;70.30
69932;DHT22;57243;52.064;5.116;2023-03-31T22:33:40;16.70;70.30
69932;DHT22;57243;52.064;5.116;2023-03-31T22:36:05;16.70;70.20
69932;DHT22;57243;52.064;5.116;2023-03-31T22:38:31;16.70;70.20
69932;DHT22;57243;52.064;5.116;2023-03-31T22:40:57;16.70;70.30
69932;DHT22;57243;52.064;5.116;2023-03-31T22:43:23;16.70;70.10
69932;DHT22;57243;52.064;5.116;2023-03-31T22:45:48;16.70;70.40
69932;DHT22;57243;52.064;5.116;2023-03-31T22:48:14;16.70;70.30
69932;DHT22;57243;52.064;5.116;2023-03-31T22:50:40;16.70;70.30
69932;DHT22;57243;52.064;5.116;2023-03-31T22:53:07;16.70;70.40
69932;DHT22;57243;52.064;5.116;2023-03-31T22:55:43;16.70;70.40
69932;DHT22;57243;52.064;5.116;2023-03-31T22:58:09;16.70;70.10
69932;DHT22;57243;52.064;5.116;2023-03-31T23:00:35;16.70;70.10
69932;DHT22;57243;52.064;5.116;2023-03-31T23:03:01;16.70;70.30
69932;DHT22;57243;52.064;5.116;2023-03-31T23:05:27;16.70;70.10
69932;DHT22;57243;52.064;5.116;2023-03-31T23:07:52;16.70;70.30
69932;DHT22;57243;52.064;5.116;2023-03-31T23:10:17;16.70;70.30
69932;DHT22;57243;52.064;5.116;2023-03-31T23:12:43;16.70;70.40
69932;DHT22;57243;52.064;5.116;2023-03-31T23:15:09;16.70;70.20
69932;DHT22;57243;52.064;5.116;2023-03-31T23:17:34;16.70;70.20
69932;DHT22;57243;52.064;5.116;2023-03-31T23:20:00;16.70;70.20
69932;DHT22;57243;52.064;5.116;2023-03-31T23:22:26;16.70;70.20
69932;DHT22;57243;52.064;5.116;2023-03-31T23:24:51;16.70;70.30
69932;DHT22;57243;52.064;5.116;2023-03-31T23:27:17;16.70;70.30
69932;DHT22;57243;52.064;5.116;2023-03-31T23:29:43;16.70;70.30
69932;DHT22;57243;52.064;5.116;2023-03-31T23:32:09;16.70;70.10
69932;DHT22;57243;52.064;5.116;2023-03-31T23:34:35;16.70;70.00
69932;DHT22;57243;52.064;5.116;2023-03-31T23:37:06;16.60;70.10
69932;DHT22;57243;52.064;5.116;2023-03-31T23:39:31;16.70;70.20
69932;DHT22;57243;52.064;5.116;2023-03-31T23:41:57;16.60;70.00
69932;DHT22;57243;52.064;5.116;2023-03-31T23:44:23;16.60;70.10
69932;DHT22;57243;52.064;5.116;2023-03-31T23:46:48;16.70;70.00
69932;DHT22;57243;52.064;5.116;2023-03-31T23:49:14;16.60;70.10
69932;DHT22;57243;52.064;5.116;2023-03-31T23:51:39;16.60;70.00
69932;DHT22;57243;52.064;5.116;2023-03-31T23:54:05;16.60;70.00
69932;DHT22;57243;52.064;5.116;2023-03-31T23:56:30;16.60;70.00
69932;DHT22;57243;52.064;5.116;2023-03-31T23:58:56;16.60;70.10
